Flugplatz Schleswig Airport

Bericht für ETNS

vom 23.08. um 12:20 UTC

Wind 12 kt aus 260°

Sichtweite 10 km oder mehr

Temperatur 23.0°C

Taupunkt 14.0°C

Luftfeuchtigkeit 57%

Luftdruck 1026 hPa

ETNS 231220Z AUTO 26012KT 9999 // ////// 23/14 Q1026 ///

Prognose für ETNS

vom 23.08. um 00:00 UTC

Zwischen 00:00 UTC und 00:00 UTC

Wind 10 kt aus 230°

Sichtweite 10 km oder mehr

keine signifikanten Wettererscheinungen

aufgebrochene Bewölkung in 21000 ft

TAF AMD ETNS 231028Z 2308/2317 23010KT 9999 NSW BKN210 CANCEL 1030 BY ETGL
Impressum